sensor_id;sensor_type;location;lat;lon;timestamp;pressure;altitude;pressure_sealevel;temperature;humidity
77323;BME280;66384;51.052;9.850;2024-03-07T00:01:26;99433.20;;;6.66;64.59
77323;BME280;66384;51.052;9.850;2024-03-07T00:04:03;99435.29;;;6.64;64.73
77323;BME280;66384;51.052;9.850;2024-03-07T00:06:39;99435.95;;;6.64;64.60
77323;BME280;66384;51.052;9.850;2024-03-07T00:09:16;99437.61;;;6.63;64.55
77323;BME280;66384;51.052;9.850;2024-03-07T00:11:57;99433.98;;;6.62;64.58
77323;BME280;66384;51.052;9.850;2024-03-07T00:14:34;99437.90;;;6.58;64.58
77323;BME280;66384;51.052;9.850;2024-03-07T00:17:11;99436.46;;;6.54;64.48
77323;BME280;66384;51.052;9.850;2024-03-07T00:19:48;99432.67;;;6.50;64.39
77323;BME280;66384;51.052;9.850;2024-03-07T00:22:24;99431.77;;;6.47;64.35
77323;BME280;66384;51.052;9.850;2024-03-07T00:25:03;99433.04;;;6.42;64.25
77323;BME280;66384;51.052;9.850;2024-03-07T00:27:40;99430.17;;;6.36;64.26
77323;BME280;66384;51.052;9.850;2024-03-07T00:30:19;99430.59;;;6.31;64.18
77323;BME280;66384;51.052;9.850;2024-03-07T00:32:55;99433.72;;;6.25;64.14
77323;BME280;66384;51.052;9.850;2024-03-07T00:35:32;99430.84;;;6.20;63.86
77323;BME280;66384;51.052;9.850;2024-03-07T00:38:09;99430.80;;;6.13;63.78
77323;BME280;66384;51.052;9.850;2024-03-07T00:40:45;99430.44;;;6.06;63.86
77323;BME280;66384;51.052;9.850;2024-03-07T00:43:22;99425.52;;;6.01;63.80
77323;BME280;66384;51.052;9.850;2024-03-07T00:45:59;99422.35;;;5.96;63.90
77323;BME280;66384;51.052;9.850;2024-03-07T00:48:35;99424.06;;;5.91;63.96
77323;BME280;66384;51.052;9.850;2024-03-07T00:51:11;99417.84;;;5.83;63.87
77323;BME280;66384;51.052;9.850;2024-03-07T00:53:48;99418.02;;;5.77;64.12
77323;BME280;66384;51.052;9.850;2024-03-07T00:56:25;99416.60;;;5.73;64.11
77323;BME280;66384;51.052;9.850;2024-03-07T00:59:02;99416.23;;;5.70;64.18
77323;BME280;66384;51.052;9.850;2024-03-07T01:01:38;99415.19;;;5.67;64.24
77323;BME280;66384;51.052;9.850;2024-03-07T01:04:15;99413.89;;;5.65;64.31
77323;BME280;66384;51.052;9.850;2024-03-07T01:06:51;99411.09;;;5.61;64.20
77323;BME280;66384;51.052;9.850;2024-03-07T01:09:28;99414.21;;;5.58;64.49
77323;BME280;66384;51.052;9.850;2024-03-07T01:12:05;99408.58;;;5.56;64.47
77323;BME280;66384;51.052;9.850;2024-03-07T01:14:43;99408.36;;;5.52;64.45
77323;BME280;66384;51.052;9.850;2024-03-07T01:17:20;99408.73;;;5.49;64.68
77323;BME280;66384;51.052;9.850;2024-03-07T01:19:57;99405.20;;;5.47;64.56
77323;BME280;66384;51.052;9.850;2024-03-07T01:22:36;99403.69;;;5.44;64.65
77323;BME280;66384;51.052;9.850;2024-03-07T01:25:13;99402.54;;;5.39;64.53
77323;BME280;66384;51.052;9.850;2024-03-07T01:27:50;99403.31;;;5.32;64.53
77323;BME280;66384;51.052;9.850;2024-03-07T01:30:27;99402.59;;;5.25;64.61
77323;BME280;66384;51.052;9.850;2024-03-07T01:33:04;99402.50;;;5.18;64.68
77323;BME280;66384;51.052;9.850;2024-03-07T01:35:41;99405.13;;;5.11;64.74
77323;BME280;66384;51.052;9.850;2024-03-07T01:38:18;99398.95;;;5.04;64.93
77323;BME280;66384;51.052;9.850;2024-03-07T01:40:55;99397.77;;;4.98;64.95
77323;BME280;66384;51.052;9.850;2024-03-07T01:43:31;99392.63;;;4.93;65.08
77323;BME280;66384;51.052;9.850;2024-03-07T01:46:08;99395.16;;;4.89;65.28
77323;BME280;66384;51.052;9.850;2024-03-07T01:48:45;99396.58;;;4.87;65.35
77323;BME280;66384;51.052;9.850;2024-03-07T01:51:19;99396.36;;;4.86;65.40
77323;BME280;66384;51.052;9.850;2024-03-07T01:53:57;99395.89;;;4.84;65.41
77323;BME280;66384;51.052;9.850;2024-03-07T01:56:34;99391.48;;;4.79;65.48
77323;BME280;66384;51.052;9.850;2024-03-07T01:59:12;99387.72;;;4.70;65.31
77323;BME280;66384;51.052;9.850;2024-03-07T02:01:49;99381.97;;;4.51;65.34
77323;BME280;66384;51.052;9.850;2024-03-07T02:04:26;99382.68;;;4.32;65.57
77323;BME280;66384;51.052;9.850;2024-03-07T02:07:02;99384.54;;;4.18;65.93
77323;BME280;66384;51.052;9.850;2024-03-07T02:09:39;99381.37;;;4.08;66.14
77323;BME280;66384;51.052;9.850;2024-03-07T02:12:16;99379.98;;;3.95;66.31
77323;BME280;66384;51.052;9.850;2024-03-07T02:14:53;99380.15;;;3.89;66.49
77323;BME280;66384;51.052;9.850;2024-03-07T02:17:29;99379.45;;;3.83;66.66
77323;BME280;66384;51.052;9.850;2024-03-07T02:20:07;99380.75;;;3.80;66.77
77323;BME280;66384;51.052;9.850;2024-03-07T02:22:44;99382.48;;;3.78;67.01
77323;BME280;66384;51.052;9.850;2024-03-07T02:25:20;99379.54;;;3.74;67.14
77323;BME280;66384;51.052;9.850;2024-03-07T02:27:57;99373.86;;;3.73;67.35
77323;BME280;66384;51.052;9.850;2024-03-07T02:30:33;99376.09;;;3.73;67.41
77323;BME280;66384;51.052;9.850;2024-03-07T02:33:10;99371.03;;;3.72;67.44
77323;BME280;66384;51.052;9.850;2024-03-07T02:35:46;99378.75;;;3.64;67.61
77323;BME280;66384;51.052;9.850;2024-03-07T02:38:23;99373.73;;;3.60;67.81
77323;BME280;66384;51.052;9.850;2024-03-07T02:40:59;99370.52;;;3.58;67.88
77323;BME280;66384;51.052;9.850;2024-03-07T02:43:36;99369.42;;;3.57;67.91
77323;BME280;66384;51.052;9.850;2024-03-07T02:46:12;99366.73;;;3.55;67.92
77323;BME280;66384;51.052;9.850;2024-03-07T02:48:47;99369.81;;;3.50;68.19
77323;BME280;66384;51.052;9.850;2024-03-07T02:51:23;99369.98;;;3.50;68.34
77323;BME280;66384;51.052;9.850;2024-03-07T02:53:59;99371.50;;;3.52;68.55
77323;BME280;66384;51.052;9.850;2024-03-07T02:56:38;99370.13;;;3.55;68.86
77323;BME280;66384;51.052;9.850;2024-03-07T02:59:15;99367.93;;;3.57;68.77
77323;BME280;66384;51.052;9.850;2024-03-07T03:01:51;99364.52;;;3.60;68.80
77323;BME280;66384;51.052;9.850;2024-03-07T03:04:28;99370.60;;;3.62;68.93
77323;BME280;66384;51.052;9.850;2024-03-07T03:07:06;99368.78;;;3.65;68.94
77323;BME280;66384;51.052;9.850;2024-03-07T03:09:43;99371.07;;;3.70;68.95
77323;BME280;66384;51.052;9.850;2024-03-07T03:12:20;99366.40;;;3.74;69.00
77323;BME280;66384;51.052;9.850;2024-03-07T03:14:56;99358.23;;;3.79;69.08
77323;BME280;66384;51.052;9.850;2024-03-07T03:17:33;99360.37;;;3.83;69.01
77323;BME280;66384;51.052;9.850;2024-03-07T03:20:12;99358.02;;;3.86;69.06
77323;BME280;66384;51.052;9.850;2024-03-07T03:22:58;99353.00;;;3.87;69.07
77323;BME280;66384;51.052;9.850;2024-03-07T03:25:51;99353.11;;;3.89;69.22
77323;BME280;66384;51.052;9.850;2024-03-07T03:28:28;99349.39;;;3.92;69.44
77323;BME280;66384;51.052;9.850;2024-03-07T03:31:05;99344.28;;;3.95;69.47
77323;BME280;66384;51.052;9.850;2024-03-07T03:33:41;99343.41;;;3.97;69.66
77323;BME280;66384;51.052;9.850;2024-03-07T03:36:18;99343.80;;;4.01;69.75
77323;BME280;66384;51.052;9.850;2024-03-07T03:38:55;99342.86;;;4.05;69.90
77323;BME280;66384;51.052;9.850;2024-03-07T03:41:31;99339.02;;;4.09;69.95
77323;BME280;66384;51.052;9.850;2024-03-07T03:44:08;99332.08;;;4.13;69.83
77323;BME280;66384;51.052;9.850;2024-03-07T03:46:45;99333.83;;;4.16;69.79
77323;BME280;66384;51.052;9.850;2024-03-07T03:49:22;99330.81;;;4.17;69.89
77323;BME280;66384;51.052;9.850;2024-03-07T03:51:58;99332.06;;;4.18;69.79
77323;BME280;66384;51.052;9.850;2024-03-07T03:54:35;99331.95;;;4.19;69.94
77323;BME280;66384;51.052;9.850;2024-03-07T03:57:11;99329.69;;;4.21;70.09
77323;BME280;66384;51.052;9.850;2024-03-07T03:59:48;99323.36;;;4.23;70.33
77323;BME280;66384;51.052;9.850;2024-03-07T04:02:26;99319.85;;;4.24;70.31
77323;BME280;66384;51.052;9.850;2024-03-07T04:05:04;99319.59;;;4.25;70.38
77323;BME280;66384;51.052;9.850;2024-03-07T04:07:40;99316.73;;;4.28;70.47
77323;BME280;66384;51.052;9.850;2024-03-07T04:10:17;99320.48;;;4.31;70.37
77323;BME280;66384;51.052;9.850;2024-03-07T04:12:54;99319.75;;;4.31;70.34
77323;BME280;66384;51.052;9.850;2024-03-07T04:15:30;99322.00;;;4.28;70.34
77323;BME280;66384;51.052;9.850;2024-03-07T04:18:10;99330.95;;;4.28;70.44
77323;BME280;66384;51.052;9.850;2024-03-07T04:20:46;99329.23;;;4.25;70.60
77323;BME280;66384;51.052;9.850;2024-03-07T04:23:23;99330.46;;;4.22;70.78
77323;BME280;66384;51.052;9.850;2024-03-07T04:25:59;99328.36;;;4.21;70.88
77323;BME280;66384;51.052;9.850;2024-03-07T04:28:35;99326.53;;;4.22;71.07
77323;BME280;66384;51.052;9.850;2024-03-07T04:31:12;99328.34;;;4.24;71.11
77323;BME280;66384;51.052;9.850;2024-03-07T04:33:50;99325.66;;;4.25;71.11
77323;BME280;66384;51.052;9.850;2024-03-07T04:36:26;99321.96;;;4.25;71.28
77323;BME280;66384;51.052;9.850;2024-03-07T04:39:03;99321.73;;;4.27;71.33
77323;BME280;66384;51.052;9.850;2024-03-07T04:41:48;99321.38;;;4.29;71.28
77323;BME280;66384;51.052;9.850;2024-03-07T04:44:28;99319.45;;;4.31;71.37
77323;BME280;66384;51.052;9.850;2024-03-07T04:47:06;99316.40;;;4.34;71.15
77323;BME280;66384;51.052;9.850;2024-03-07T04:49:43;99322.88;;;4.38;71.11
77323;BME280;66384;51.052;9.850;2024-03-07T04:52:20;99317.45;;;4.40;71.09
77323;BME280;66384;51.052;9.850;2024-03-07T04:54:56;99313.73;;;4.44;70.89
77323;BME280;66384;51.052;9.850;2024-03-07T04:57:33;99317.48;;;4.47;70.81
77323;BME280;66384;51.052;9.850;2024-03-07T05:00:12;99321.21;;;4.49;70.68
77323;BME280;66384;51.052;9.850;2024-03-07T05:02:53;99324.09;;;4.52;70.72
77323;BME280;66384;51.052;9.850;2024-03-07T05:05:30;99326.64;;;4.54;70.65
77323;BME280;66384;51.052;9.850;2024-03-07T05:08:07;99322.63;;;4.55;70.72
77323;BME280;66384;51.052;9.850;2024-03-07T05:10:44;99323.21;;;4.57;70.73
77323;BME280;66384;51.052;9.850;2024-03-07T05:13:18;99328.84;;;4.57;70.71
77323;BME280;66384;51.052;9.850;2024-03-07T05:15:55;99331.00;;;4.60;70.71
77323;BME280;66384;51.052;9.850;2024-03-07T05:18:33;99327.11;;;4.60;70.65
77323;BME280;66384;51.052;9.850;2024-03-07T05:21:10;99329.56;;;4.61;70.79
77323;BME280;66384;51.052;9.850;2024-03-07T05:23:59;99328.65;;;4.63;70.94
77323;BME280;66384;51.052;9.850;2024-03-07T05:26:36;99326.95;;;4.63;70.79
77323;BME280;66384;51.052;9.850;2024-03-07T05:29:14;99329.81;;;4.65;70.78
77323;BME280;66384;51.052;9.850;2024-03-07T05:31:51;99332.79;;;4.66;70.82
77323;BME280;66384;51.052;9.850;2024-03-07T05:34:28;99333.05;;;4.68;70.81
77323;BME280;66384;51.052;9.850;2024-03-07T05:37:06;99331.75;;;4.69;70.88
77323;BME280;66384;51.052;9.850;2024-03-07T05:39:43;99334.42;;;4.71;70.75
77323;BME280;66384;51.052;9.850;2024-03-07T05:42:19;99333.81;;;4.72;70.70
77323;BME280;66384;51.052;9.850;2024-03-07T05:44:58;99333.29;;;4.74;70.70
77323;BME280;66384;51.052;9.850;2024-03-07T05:47:35;99331.48;;;4.75;70.72
77323;BME280;66384;51.052;9.850;2024-03-07T05:50:12;99333.70;;;4.76;70.65
77323;BME280;66384;51.052;9.850;2024-03-07T05:52:48;99335.69;;;4.78;70.61
77323;BME280;66384;51.052;9.850;2024-03-07T05:55:25;99336.13;;;4.80;70.61
77323;BME280;66384;51.052;9.850;2024-03-07T05:58:01;99335.60;;;4.82;70.76
77323;BME280;66384;51.052;9.850;2024-03-07T06:00:39;99333.73;;;4.86;70.65
77323;BME280;66384;51.052;9.850;2024-03-07T06:03:15;99332.52;;;4.88;70.60
77323;BME280;66384;51.052;9.850;2024-03-07T06:05:50;99335.05;;;4.87;70.51
77323;BME280;66384;51.052;9.850;2024-03-07T06:08:27;99337.31;;;4.88;70.54
77323;BME280;66384;51.052;9.850;2024-03-07T06:11:03;99336.56;;;4.90;70.40
77323;BME280;66384;51.052;9.850;2024-03-07T06:13:40;99340.18;;;4.91;70.41
77323;BME280;66384;51.052;9.850;2024-03-07T06:16:16;99341.96;;;4.92;70.28
77323;BME280;66384;51.052;9.850;2024-03-07T06:18:53;99339.95;;;4.92;70.29
77323;BME280;66384;51.052;9.850;2024-03-07T06:21:31;99343.23;;;4.93;70.19
77323;BME280;66384;51.052;9.850;2024-03-07T06:24:07;99341.59;;;4.94;70.17
77323;BME280;66384;51.052;9.850;2024-03-07T06:26:48;99338.69;;;4.94;70.14
77323;BME280;66384;51.052;9.850;2024-03-07T06:29:33;99339.77;;;4.95;70.15
77323;BME280;66384;51.052;9.850;2024-03-07T06:32:10;99344.73;;;4.95;70.16
77323;BME280;66384;51.052;9.850;2024-03-07T06:34:47;99342.51;;;4.95;70.26
77323;BME280;66384;51.052;9.850;2024-03-07T06:37:23;99339.61;;;4.95;70.44
77323;BME280;66384;51.052;9.850;2024-03-07T06:39:59;99341.89;;;4.96;70.65
77323;BME280;66384;51.052;9.850;2024-03-07T06:42:38;99341.13;;;4.98;70.66
77323;BME280;66384;51.052;9.850;2024-03-07T06:45:15;99341.60;;;5.00;70.62
77323;BME280;66384;51.052;9.850;2024-03-07T06:47:51;99338.40;;;5.04;70.68
77323;BME280;66384;51.052;9.850;2024-03-07T06:50:29;99339.23;;;5.09;70.55
77323;BME280;66384;51.052;9.850;2024-03-07T06:53:10;99342.77;;;5.11;70.59
77323;BME280;66384;51.052;9.850;2024-03-07T06:55:47;99342.04;;;5.14;70.50
77323;BME280;66384;51.052;9.850;2024-03-07T06:58:26;99345.77;;;5.16;70.38
77323;BME280;66384;51.052;9.850;2024-03-07T07:01:06;99344.91;;;5.19;70.51
77323;BME280;66384;51.052;9.850;2024-03-07T07:03:44;99339.38;;;5.20;70.66
77323;BME280;66384;51.052;9.850;2024-03-07T07:06:21;99343.30;;;5.23;70.54
77323;BME280;66384;51.052;9.850;2024-03-07T07:08:59;99341.20;;;5.25;70.46
77323;BME280;66384;51.052;9.850;2024-03-07T07:11:37;99340.28;;;5.28;70.52
77323;BME280;66384;51.052;9.850;2024-03-07T07:14:13;99343.52;;;5.28;70.63
77323;BME280;66384;51.052;9.850;2024-03-07T07:16:54;99342.70;;;5.28;70.97
77323;BME280;66384;51.052;9.850;2024-03-07T07:19:32;99341.83;;;5.27;71.12
77323;BME280;66384;51.052;9.850;2024-03-07T07:22:09;99340.09;;;5.24;71.48
77323;BME280;66384;51.052;9.850;2024-03-07T07:24:47;99338.73;;;5.21;71.68
77323;BME280;66384;51.052;9.850;2024-03-07T07:27:23;99336.80;;;5.20;71.92
77323;BME280;66384;51.052;9.850;2024-03-07T07:30:00;99331.04;;;5.21;71.95
77323;BME280;66384;51.052;9.850;2024-03-07T07:32:37;99335.08;;;5.23;72.07
77323;BME280;66384;51.052;9.850;2024-03-07T07:35:14;99331.30;;;5.25;72.15
77323;BME280;66384;51.052;9.850;2024-03-07T07:37:51;99331.31;;;5.29;72.47
77323;BME280;66384;51.052;9.850;2024-03-07T07:40:29;99332.77;;;5.33;72.53
77323;BME280;66384;51.052;9.850;2024-03-07T07:43:07;99330.98;;;5.32;72.63
77323;BME280;66384;51.052;9.850;2024-03-07T07:45:49;99336.20;;;5.34;72.77
77323;BME280;66384;51.052;9.850;2024-03-07T07:48:25;99331.14;;;5.37;72.70
77323;BME280;66384;51.052;9.850;2024-03-07T07:51:02;99335.23;;;5.40;72.78
77323;BME280;66384;51.052;9.850;2024-03-07T07:53:40;99334.99;;;5.42;72.80
77323;BME280;66384;51.052;9.850;2024-03-07T07:56:17;99331.38;;;5.45;72.92
77323;BME280;66384;51.052;9.850;2024-03-07T07:58:57;99330.80;;;5.50;72.91
77323;BME280;66384;51.052;9.850;2024-03-07T08:01:35;99325.83;;;5.53;72.96
77323;BME280;66384;51.052;9.850;2024-03-07T08:04:12;99327.39;;;5.53;73.31
77323;BME280;66384;51.052;9.850;2024-03-07T08:06:48;99326.02;;;5.53;73.50
77323;BME280;66384;51.052;9.850;2024-03-07T08:09:25;99324.55;;;5.54;73.59
77323;BME280;66384;51.052;9.850;2024-03-07T08:12:01;99326.89;;;5.56;73.96
77323;BME280;66384;51.052;9.850;2024-03-07T08:14:40;99325.59;;;5.57;74.18
77323;BME280;66384;51.052;9.850;2024-03-07T08:17:18;99322.89;;;5.58;74.36
77323;BME280;66384;51.052;9.850;2024-03-07T08:19:54;99319.84;;;5.61;74.48
77323;BME280;66384;51.052;9.850;2024-03-07T08:22:30;99322.27;;;5.65;74.60
77323;BME280;66384;51.052;9.850;2024-03-07T08:25:09;99322.51;;;5.66;74.72
77323;BME280;66384;51.052;9.850;2024-03-07T08:27:47;99321.49;;;5.69;74.77
77323;BME280;66384;51.052;9.850;2024-03-07T08:30:24;99322.80;;;5.72;75.07
77323;BME280;66384;51.052;9.850;2024-03-07T08:33:03;99324.19;;;5.75;75.24
77323;BME280;66384;51.052;9.850;2024-03-07T08:35:41;99325.55;;;5.75;75.68
77323;BME280;66384;51.052;9.850;2024-03-07T08:38:18;99317.17;;;5.72;75.95
77323;BME280;66384;51.052;9.850;2024-03-07T08:40:53;99318.64;;;5.70;76.17
77323;BME280;66384;51.052;9.850;2024-03-07T08:43:30;99320.84;;;5.73;76.26
77323;BME280;66384;51.052;9.850;2024-03-07T08:46:07;99320.08;;;5.78;76.26
77323;BME280;66384;51.052;9.850;2024-03-07T08:48:44;99321.64;;;5.78;76.73
77323;BME280;66384;51.052;9.850;2024-03-07T08:51:21;99321.46;;;5.78;76.76
77323;BME280;66384;51.052;9.850;2024-03-07T08:53:58;99320.13;;;5.79;77.07
77323;BME280;66384;51.052;9.850;2024-03-07T08:56:35;99319.64;;;5.79;77.12
77323;BME280;66384;51.052;9.850;2024-03-07T08:59:10;99315.52;;;5.76;77.16
77323;BME280;66384;51.052;9.850;2024-03-07T09:01:50;99319.72;;;5.75;77.46
77323;BME280;66384;51.052;9.850;2024-03-07T09:04:27;99318.05;;;5.75;77.66
77323;BME280;66384;51.052;9.850;2024-03-07T09:07:04;99317.41;;;5.76;77.94
77323;BME280;66384;51.052;9.850;2024-03-07T09:09:41;99318.95;;;5.98;82.95
77323;BME280;66384;51.052;9.850;2024-03-07T09:12:19;99314.83;;;6.32;81.60
77323;BME280;66384;51.052;9.850;2024-03-07T09:14:58;99314.53;;;6.62;80.22
77323;BME280;66384;51.052;9.850;2024-03-07T09:17:35;99313.77;;;6.84;78.90
77323;BME280;66384;51.052;9.850;2024-03-07T09:20:13;99312.04;;;7.08;79.29
77323;BME280;66384;51.052;9.850;2024-03-07T09:22:52;99311.41;;;7.30;78.50
77323;BME280;66384;51.052;9.850;2024-03-07T09:25:29;99311.73;;;7.47;77.82
77323;BME280;66384;51.052;9.850;2024-03-07T09:28:08;99306.13;;;7.65;77.40
77323;BME280;66384;51.052;9.850;2024-03-07T09:30:45;99306.02;;;7.78;75.79
77323;BME280;66384;51.052;9.850;2024-03-07T09:33:22;99304.53;;;7.86;76.14
77323;BME280;66384;51.052;9.850;2024-03-07T09:36:02;99299.64;;;7.99;75.19
77323;BME280;66384;51.052;9.850;2024-03-07T09:38:40;99304.39;;;7.98;73.87
77323;BME280;66384;51.052;9.850;2024-03-07T09:41:17;99300.19;;;7.89;73.54
77323;BME280;66384;51.052;9.850;2024-03-07T09:43:55;99301.11;;;7.79;73.21
77323;BME280;66384;51.052;9.850;2024-03-07T09:46:33;99301.73;;;7.66;73.26
77323;BME280;66384;51.052;9.850;2024-03-07T09:49:10;99301.75;;;7.57;73.32
77323;BME280;66384;51.052;9.850;2024-03-07T09:51:50;99300.39;;;7.42;73.40
77323;BME280;66384;51.052;9.850;2024-03-07T09:54:30;99302.52;;;7.26;73.32
77323;BME280;66384;51.052;9.850;2024-03-07T09:57:08;99302.52;;;7.13;73.74
77323;BME280;66384;51.052;9.850;2024-03-07T09:59:48;99304.85;;;7.08;74.50
77323;BME280;66384;51.052;9.850;2024-03-07T10:02:29;99302.92;;;7.10;74.51
77323;BME280;66384;51.052;9.850;2024-03-07T10:05:07;99300.20;;;7.17;74.49
77323;BME280;66384;51.052;9.850;2024-03-07T10:07:48;99298.16;;;7.28;74.31
77323;BME280;66384;51.052;9.850;2024-03-07T10:10:32;99298.95;;;7.37;74.05
77323;BME280;66384;51.052;9.850;2024-03-07T10:13:08;99293.29;;;7.48;74.06
77323;BME280;66384;51.052;9.850;2024-03-07T10:15:46;99289.58;;;7.60;73.80
77323;BME280;66384;51.052;9.850;2024-03-07T10:18:23;99285.64;;;7.92;76.34
77323;BME280;66384;51.052;9.850;2024-03-07T10:21:01;99285.45;;;8.41;75.94
77323;BME280;66384;51.052;9.850;2024-03-07T10:23:37;99280.65;;;8.73;73.40
77323;BME280;66384;51.052;9.850;2024-03-07T10:26:14;99284.48;;;9.07;75.16
77323;BME280;66384;51.052;9.850;2024-03-07T10:28:52;99277.02;;;9.46;73.13
77323;BME280;66384;51.052;9.850;2024-03-07T10:31:32;99276.39;;;9.74;72.51
77323;BME280;66384;51.052;9.850;2024-03-07T10:34:18;99270.04;;;9.97;69.90
77323;BME280;66384;51.052;9.850;2024-03-07T10:36:57;99269.90;;;10.07;69.03
77323;BME280;66384;51.052;9.850;2024-03-07T10:39:37;99265.80;;;10.17;68.63
77323;BME280;66384;51.052;9.850;2024-03-07T10:42:15;99266.22;;;10.37;67.88
77323;BME280;66384;51.052;9.850;2024-03-07T10:44:52;99264.70;;;10.47;66.54
77323;BME280;66384;51.052;9.850;2024-03-07T10:47:33;99267.87;;;10.45;66.41
77323;BME280;66384;51.052;9.850;2024-03-07T10:50:16;99267.35;;;10.45;65.68
77323;BME280;66384;51.052;9.850;2024-03-07T10:53:02;99265.45;;;10.35;63.73
77323;BME280;66384;51.052;9.850;2024-03-07T10:55:57;99266.15;;;10.22;63.86
77323;BME280;66384;51.052;9.850;2024-03-07T10:58:53;99264.83;;;10.10;63.82
77323;BME280;66384;51.052;9.850;2024-03-07T11:01:34;99261.23;;;9.96;63.39
77323;BME280;66384;51.052;9.850;2024-03-07T11:04:13;99264.45;;;9.86;62.95
77323;BME280;66384;51.052;9.850;2024-03-07T11:06:49;99262.34;;;9.80;62.97
77323;BME280;66384;51.052;9.850;2024-03-07T11:09:27;99259.88;;;9.73;63.10
77323;BME280;66384;51.052;9.850;2024-03-07T11:12:08;99253.67;;;9.73;62.69
77323;BME280;66384;51.052;9.850;2024-03-07T11:14:47;99244.11;;;9.75;62.02
77323;BME280;66384;51.052;9.850;2024-03-07T11:17:24;99245.09;;;9.78;61.10
77323;BME280;66384;51.052;9.850;2024-03-07T11:20:23;99242.56;;;9.88;60.62
77323;BME280;66384;51.052;9.850;2024-03-07T11:23:00;99236.52;;;10.01;59.33
77323;BME280;66384;51.052;9.850;2024-03-07T11:25:37;99236.90;;;10.07;57.98
77323;BME280;66384;51.052;9.850;2024-03-07T11:28:18;99241.98;;;10.05;57.68
77323;BME280;66384;51.052;9.850;2024-03-07T11:30:55;99241.18;;;9.97;57.05
77323;BME280;66384;51.052;9.850;2024-03-07T11:33:43;99238.36;;;9.86;57.14
77323;BME280;66384;51.052;9.850;2024-03-07T11:36:48;99235.89;;;9.84;57.68
77323;BME280;66384;51.052;9.850;2024-03-07T11:39:44;99240.57;;;9.90;59.57
77323;BME280;66384;51.052;9.850;2024-03-07T11:42:25;99232.30;;;10.08;59.79
77323;BME280;66384;51.052;9.850;2024-03-07T11:45:05;99227.61;;;10.26;58.30
77323;BME280;66384;51.052;9.850;2024-03-07T11:47:42;99225.73;;;10.40;58.27
77323;BME280;66384;51.052;9.850;2024-03-07T11:50:18;99223.68;;;10.55;57.81
77323;BME280;66384;51.052;9.850;2024-03-07T11:52:55;99213.92;;;10.71;56.08
77323;BME280;66384;51.052;9.850;2024-03-07T11:55:33;99214.96;;;10.86;56.30
77323;BME280;66384;51.052;9.850;2024-03-07T11:58:16;99211.42;;;11.00;55.19
77323;BME280;66384;51.052;9.850;2024-03-07T12:00:55;99211.05;;;11.04;54.48
77323;BME280;66384;51.052;9.850;2024-03-07T12:03:32;99203.98;;;11.04;52.43
77323;BME280;66384;51.052;9.850;2024-03-07T12:06:10;99205.02;;;11.04;52.39
77323;BME280;66384;51.052;9.850;2024-03-07T12:08:50;99205.56;;;11.00;50.78
77323;BME280;66384;51.052;9.850;2024-03-07T12:11:27;99201.55;;;10.87;50.33
77323;BME280;66384;51.052;9.850;2024-03-07T12:14:04;99197.45;;;10.78;51.13
77323;BME280;66384;51.052;9.850;2024-03-07T12:16:41;99200.44;;;10.69;51.28
77323;BME280;66384;51.052;9.850;2024-03-07T12:19:18;99197.02;;;10.60;52.29
77323;BME280;66384;51.052;9.850;2024-03-07T12:21:59;99198.11;;;10.56;53.28
77323;BME280;66384;51.052;9.850;2024-03-07T12:24:36;99199.44;;;10.55;51.88
77323;BME280;66384;51.052;9.850;2024-03-07T12:27:15;99196.34;;;10.50;51.46
77323;BME280;66384;51.052;9.850;2024-03-07T12:29:54;99199.55;;;10.43;51.84
77323;BME280;66384;51.052;9.850;2024-03-07T12:32:30;99194.61;;;10.34;50.28
77323;BME280;66384;51.052;9.850;2024-03-07T12:35:10;99192.52;;;10.25;51.18
77323;BME280;66384;51.052;9.850;2024-03-07T12:37:50;99188.14;;;10.23;50.23
77323;BME280;66384;51.052;9.850;2024-03-07T12:40:28;99183.17;;;10.14;50.22
77323;BME280;66384;51.052;9.850;2024-03-07T12:43:15;99182.13;;;10.03;51.95
77323;BME280;66384;51.052;9.850;2024-03-07T12:45:55;99177.38;;;10.10;56.87
77323;BME280;66384;51.052;9.850;2024-03-07T12:48:34;99175.61;;;10.42;57.82
77323;BME280;66384;51.052;9.850;2024-03-07T12:51:13;99173.43;;;10.80;55.69
77323;BME280;66384;51.052;9.850;2024-03-07T12:53:53;99169.52;;;11.03;54.91
77323;BME280;66384;51.052;9.850;2024-03-07T12:56:29;99166.61;;;11.19;54.33
77323;BME280;66384;51.052;9.850;2024-03-07T12:59:08;99167.73;;;11.28;51.92
77323;BME280;66384;51.052;9.850;2024-03-07T13:01:42;99168.08;;;11.12;49.08
77323;BME280;66384;51.052;9.850;2024-03-07T13:04:18;99168.80;;;10.85;48.57
77323;BME280;66384;51.052;9.850;2024-03-07T13:06:55;99172.02;;;10.68;48.33
77323;BME280;66384;51.052;9.850;2024-03-07T13:09:33;99172.53;;;10.53;48.21
77323;BME280;66384;51.052;9.850;2024-03-07T13:12:11;99169.34;;;10.45;47.29
77323;BME280;66384;51.052;9.850;2024-03-07T13:14:45;99164.83;;;10.43;47.58
77323;BME280;66384;51.052;9.850;2024-03-07T13:17:22;99170.04;;;10.45;47.65
77323;BME280;66384;51.052;9.850;2024-03-07T13:19:59;99172.36;;;10.42;47.04
77323;BME280;66384;51.052;9.850;2024-03-07T13:22:46;99173.18;;;10.41;47.10
77323;BME280;66384;51.052;9.850;2024-03-07T13:25:24;99172.87;;;10.43;47.16
77323;BME280;66384;51.052;9.850;2024-03-07T13:28:08;99172.54;;;10.43;46.03
77323;BME280;66384;51.052;9.850;2024-03-07T13:30:47;99182.02;;;10.43;46.40
77323;BME280;66384;51.052;9.850;2024-03-07T13:33:28;99177.73;;;10.49;46.37
77323;BME280;66384;51.052;9.850;2024-03-07T13:36:07;99178.23;;;10.54;46.15
77323;BME280;66384;51.052;9.850;2024-03-07T13:38:44;99172.52;;;10.52;45.74
77323;BME280;66384;51.052;9.850;2024-03-07T13:41:21;99168.45;;;10.49;46.25
77323;BME280;66384;51.052;9.850;2024-03-07T13:44:02;99169.23;;;10.46;46.18
77323;BME280;66384;51.052;9.850;2024-03-07T13:46:39;99164.06;;;10.36;46.05
77323;BME280;66384;51.052;9.850;2024-03-07T13:49:15;99163.18;;;10.31;46.22
77323;BME280;66384;51.052;9.850;2024-03-07T13:51:52;99161.98;;;10.31;46.06
77323;BME280;66384;51.052;9.850;2024-03-07T13:54:36;99163.52;;;10.35;46.31
77323;BME280;66384;51.052;9.850;2024-03-07T13:57:23;99159.16;;;10.38;45.82
77323;BME280;66384;51.052;9.850;2024-03-07T14:00:22;99160.42;;;10.40;45.46
77323;BME280;66384;51.052;9.850;2024-03-07T14:03:36;99162.63;;;10.44;45.25
77323;BME280;66384;51.052;9.850;2024-03-07T14:06:30;99159.33;;;10.43;44.94